sensor_id;sensor_type;location;lat;lon;timestamp;temperature;humidity
56538;DHT22;42435;53.292;6.000;2024-02-28T00:00:16;4.70;79.20
56538;DHT22;42435;53.292;6.000;2024-02-28T00:02:51;4.60;79.20
56538;DHT22;42435;53.292;6.000;2024-02-28T00:05:22;4.60;79.30
56538;DHT22;42435;53.292;6.000;2024-02-28T00:07:58;4.60;79.40
56538;DHT22;42435;53.292;6.000;2024-02-28T00:10:25;4.60;79.40
56538;DHT22;42435;53.292;6.000;2024-02-28T00:13:00;4.60;79.50
56538;DHT22;42435;53.292;6.000;2024-02-28T00:15:26;4.50;79.60
56538;DHT22;42435;53.292;6.000;2024-02-28T00:17:56;4.60;79.60
56538;DHT22;42435;53.292;6.000;2024-02-28T00:20:21;4.50;79.70
56538;DHT22;42435;53.292;6.000;2024-02-28T00:22:57;4.60;79.70
56538;DHT22;42435;53.292;6.000;2024-02-28T00:25:29;4.50;79.90
56538;DHT22;42435;53.292;6.000;2024-02-28T00:27:55;4.50;79.80
56538;DHT22;42435;53.292;6.000;2024-02-28T00:30:21;4.50;79.80
56538;DHT22;42435;53.292;6.000;2024-02-28T00:32:52;4.50;79.90
56538;DHT22;42435;53.292;6.000;2024-02-28T00:35:24;4.50;80.00
56538;DHT22;42435;53.292;6.000;2024-02-28T00:37:54;4.50;80.10
56538;DHT22;42435;53.292;6.000;2024-02-28T00:40:28;4.50;80.20
56538;DHT22;42435;53.292;6.000;2024-02-28T00:43:17;4.50;80.20
56538;DHT22;42435;53.292;6.000;2024-02-28T00:45:52;4.40;80.30
56538;DHT22;42435;53.292;6.000;2024-02-28T00:48:40;4.50;80.30
56538;DHT22;42435;53.292;6.000;2024-02-28T00:51:09;4.50;80.40
56538;DHT22;42435;53.292;6.000;2024-02-28T00:53:35;4.50;80.40
56538;DHT22;42435;53.292;6.000;2024-02-28T00:56:02;4.40;80.40
56538;DHT22;42435;53.292;6.000;2024-02-28T00:58:31;4.40;80.50
56538;DHT22;42435;53.292;6.000;2024-02-28T01:00:58;4.40;80.50
56538;DHT22;42435;53.292;6.000;2024-02-28T01:03:30;4.40;80.50
56538;DHT22;42435;53.292;6.000;2024-02-28T01:05:59;4.40;80.60
56538;DHT22;42435;53.292;6.000;2024-02-28T01:08:36;4.30;80.70
56538;DHT22;42435;53.292;6.000;2024-02-28T01:11:09;4.30;80.80
56538;DHT22;42435;53.292;6.000;2024-02-28T01:13:39;4.30;80.70
56538;DHT22;42435;53.292;6.000;2024-02-28T01:16:07;4.30;80.80
56538;DHT22;42435;53.292;6.000;2024-02-28T01:18:48;4.30;80.80
56538;DHT22;42435;53.292;6.000;2024-02-28T01:21:18;4.30;80.80
56538;DHT22;42435;53.292;6.000;2024-02-28T01:23:51;4.30;80.90
56538;DHT22;42435;53.292;6.000;2024-02-28T01:26:22;4.30;81.00
56538;DHT22;42435;53.292;6.000;2024-02-28T01:29:07;4.30;81.10
56538;DHT22;42435;53.292;6.000;2024-02-28T01:31:34;4.40;81.20
56538;DHT22;42435;53.292;6.000;2024-02-28T01:34:00;4.30;81.30
56538;DHT22;42435;53.292;6.000;2024-02-28T01:36:30;4.30;81.30
56538;DHT22;42435;53.292;6.000;2024-02-28T01:39:07;4.40;81.40
56538;DHT22;42435;53.292;6.000;2024-02-28T01:41:54;4.40;81.40
56538;DHT22;42435;53.292;6.000;2024-02-28T01:44:30;4.40;81.30
56538;DHT22;42435;53.292;6.000;2024-02-28T01:47:08;4.40;81.40
56538;DHT22;42435;53.292;6.000;2024-02-28T01:49:47;4.40;81.50
56538;DHT22;42435;53.292;6.000;2024-02-28T01:52:19;4.40;81.50
56538;DHT22;42435;53.292;6.000;2024-02-28T01:54:50;4.40;81.50
56538;DHT22;42435;53.292;6.000;2024-02-28T01:57:21;4.40;81.70
56538;DHT22;42435;53.292;6.000;2024-02-28T01:59:57;4.40;81.60
56538;DHT22;42435;53.292;6.000;2024-02-28T02:02:29;4.40;81.60
56538;DHT22;42435;53.292;6.000;2024-02-28T02:05:06;4.40;81.70
56538;DHT22;42435;53.292;6.000;2024-02-28T02:07:40;4.40;81.70
56538;DHT22;42435;53.292;6.000;2024-02-28T02:10:11;4.40;81.60
56538;DHT22;42435;53.292;6.000;2024-02-28T02:12:46;4.40;81.50
56538;DHT22;42435;53.292;6.000;2024-02-28T02:15:13;4.40;81.70
56538;DHT22;42435;53.292;6.000;2024-02-28T02:17:41;4.40;81.80
56538;DHT22;42435;53.292;6.000;2024-02-28T02:20:13;4.40;81.90
56538;DHT22;42435;53.292;6.000;2024-02-28T02:22:42;4.40;82.00
56538;DHT22;42435;53.292;6.000;2024-02-28T02:25:11;4.40;82.00
56538;DHT22;42435;53.292;6.000;2024-02-28T02:27:39;4.50;82.00
56538;DHT22;42435;53.292;6.000;2024-02-28T02:30:17;4.50;82.10
56538;DHT22;42435;53.292;6.000;2024-02-28T02:33:04;4.50;82.10
56538;DHT22;42435;53.292;6.000;2024-02-28T02:35:35;4.50;82.20
56538;DHT22;42435;53.292;6.000;2024-02-28T02:38:05;4.50;82.30
56538;DHT22;42435;53.292;6.000;2024-02-28T02:40:36;4.60;82.20
56538;DHT22;42435;53.292;6.000;2024-02-28T02:43:02;4.60;82.30
56538;DHT22;42435;53.292;6.000;2024-02-28T02:45:29;4.60;82.30
56538;DHT22;42435;53.292;6.000;2024-02-28T02:47:58;4.60;82.40
56538;DHT22;42435;53.292;6.000;2024-02-28T02:50:24;4.60;82.40
56538;DHT22;42435;53.292;6.000;2024-02-28T02:53:08;4.70;82.50
56538;DHT22;42435;53.292;6.000;2024-02-28T02:55:38;4.70;82.40
56538;DHT22;42435;53.292;6.000;2024-02-28T02:58:19;4.70;82.40
56538;DHT22;42435;53.292;6.000;2024-02-28T03:01:12;4.70;82.40
56538;DHT22;42435;53.292;6.000;2024-02-28T03:03:56;4.80;82.40
56538;DHT22;42435;53.292;6.000;2024-02-28T03:06:34;4.80;82.40
56538;DHT22;42435;53.292;6.000;2024-02-28T03:09:20;4.80;82.40
56538;DHT22;42435;53.292;6.000;2024-02-28T03:11:57;4.80;82.40
56538;DHT22;42435;53.292;6.000;2024-02-28T03:14:41;4.80;82.40
56538;DHT22;42435;53.292;6.000;2024-02-28T03:17:10;4.90;82.40
56538;DHT22;42435;53.292;6.000;2024-02-28T03:19:49;4.90;82.40
56538;DHT22;42435;53.292;6.000;2024-02-28T03:22:37;4.90;82.60
56538;DHT22;42435;53.292;6.000;2024-02-28T03:25:48;4.90;82.40
56538;DHT22;42435;53.292;6.000;2024-02-28T03:28:43;4.90;82.50
56538;DHT22;42435;53.292;6.000;2024-02-28T03:31:22;4.90;82.30
56538;DHT22;42435;53.292;6.000;2024-02-28T03:34:01;4.90;82.40
56538;DHT22;42435;53.292;6.000;2024-02-28T03:36:29;5.00;82.40
56538;DHT22;42435;53.292;6.000;2024-02-28T03:39:14;4.90;82.40
56538;DHT22;42435;53.292;6.000;2024-02-28T03:41:58;4.90;82.40
56538;DHT22;42435;53.292;6.000;2024-02-28T03:44:45;5.00;82.50
56538;DHT22;42435;53.292;6.000;2024-02-28T03:47:23;5.00;82.50
56538;DHT22;42435;53.292;6.000;2024-02-28T03:50:07;5.00;82.50
56538;DHT22;42435;53.292;6.000;2024-02-28T03:52:59;5.00;82.60
56538;DHT22;42435;53.292;6.000;2024-02-28T03:55:41;5.00;82.50
56538;DHT22;42435;53.292;6.000;2024-02-28T03:58:10;5.10;82.50
56538;DHT22;42435;53.292;6.000;2024-02-28T04:00:41;5.10;82.60
56538;DHT22;42435;53.292;6.000;2024-02-28T04:03:11;5.10;82.60
56538;DHT22;42435;53.292;6.000;2024-02-28T04:05:39;5.10;82.60
56538;DHT22;42435;53.292;6.000;2024-02-28T04:08:11;5.20;82.70
56538;DHT22;42435;53.292;6.000;2024-02-28T04:10:47;5.20;82.80
56538;DHT22;42435;53.292;6.000;2024-02-28T04:13:20;5.20;82.80
56538;DHT22;42435;53.292;6.000;2024-02-28T04:15:49;5.20;82.80
56538;DHT22;42435;53.292;6.000;2024-02-28T04:18:31;5.20;82.80
56538;DHT22;42435;53.292;6.000;2024-02-28T04:21:02;5.20;82.80
56538;DHT22;42435;53.292;6.000;2024-02-28T04:23:35;5.30;82.70
56538;DHT22;42435;53.292;6.000;2024-02-28T04:26:10;5.30;82.70
56538;DHT22;42435;53.292;6.000;2024-02-28T04:28:45;5.30;82.70
56538;DHT22;42435;53.292;6.000;2024-02-28T04:31:17;5.30;82.70
56538;DHT22;42435;53.292;6.000;2024-02-28T04:33:52;5.30;82.60
56538;DHT22;42435;53.292;6.000;2024-02-28T04:36:18;5.30;82.60
56538;DHT22;42435;53.292;6.000;2024-02-28T04:38:54;5.30;82.60
56538;DHT22;42435;53.292;6.000;2024-02-28T04:41:22;5.30;82.60
56538;DHT22;42435;53.292;6.000;2024-02-28T04:43:54;5.20;82.60
56538;DHT22;42435;53.292;6.000;2024-02-28T04:46:34;5.30;82.60
56538;DHT22;42435;53.292;6.000;2024-02-28T04:49:00;5.30;82.70
56538;DHT22;42435;53.292;6.000;2024-02-28T04:51:33;5.30;82.70
56538;DHT22;42435;53.292;6.000;2024-02-28T04:54:03;5.40;82.70
56538;DHT22;42435;53.292;6.000;2024-02-28T04:56:41;5.30;82.80
56538;DHT22;42435;53.292;6.000;2024-02-28T04:59:16;5.40;82.80
56538;DHT22;42435;53.292;6.000;2024-02-28T05:02:01;5.40;82.80
56538;DHT22;42435;53.292;6.000;2024-02-28T05:04:36;5.40;82.80
56538;DHT22;42435;53.292;6.000;2024-02-28T05:07:05;5.40;82.90
56538;DHT22;42435;53.292;6.000;2024-02-28T05:09:38;5.40;82.90
56538;DHT22;42435;53.292;6.000;2024-02-28T05:12:08;5.50;82.90
56538;DHT22;42435;53.292;6.000;2024-02-28T05:14:37;5.50;82.80
56538;DHT22;42435;53.292;6.000;2024-02-28T05:17:10;5.50;82.90
56538;DHT22;42435;53.292;6.000;2024-02-28T05:19:39;5.50;82.90
56538;DHT22;42435;53.292;6.000;2024-02-28T05:22:06;5.50;82.80
56538;DHT22;42435;53.292;6.000;2024-02-28T05:24:41;5.50;82.80
56538;DHT22;42435;53.292;6.000;2024-02-28T05:27:18;5.50;82.80
56538;DHT22;42435;53.292;6.000;2024-02-28T05:29:48;5.50;82.80
56538;DHT22;42435;53.292;6.000;2024-02-28T05:32:18;5.50;82.80
56538;DHT22;42435;53.292;6.000;2024-02-28T05:34:49;5.50;82.90
56538;DHT22;42435;53.292;6.000;2024-02-28T05:37:16;5.60;83.00
56538;DHT22;42435;53.292;6.000;2024-02-28T05:39:48;5.60;83.00
56538;DHT22;42435;53.292;6.000;2024-02-28T05:42:23;5.60;82.90
56538;DHT22;42435;53.292;6.000;2024-02-28T05:44:52;5.60;83.00
56538;DHT22;42435;53.292;6.000;2024-02-28T05:47:18;5.60;83.10
56538;DHT22;42435;53.292;6.000;2024-02-28T05:49:52;5.60;83.10
56538;DHT22;42435;53.292;6.000;2024-02-28T05:52:34;5.70;83.10
56538;DHT22;42435;53.292;6.000;2024-02-28T05:55:14;5.70;83.20
56538;DHT22;42435;53.292;6.000;2024-02-28T05:57:41;5.60;83.10
56538;DHT22;42435;53.292;6.000;2024-02-28T06:00:19;5.70;83.20
56538;DHT22;42435;53.292;6.000;2024-02-28T06:02:51;5.70;83.20
56538;DHT22;42435;53.292;6.000;2024-02-28T06:05:19;5.70;83.20
56538;DHT22;42435;53.292;6.000;2024-02-28T06:07:46;5.70;83.30
56538;DHT22;42435;53.292;6.000;2024-02-28T06:10:16;5.70;83.40
56538;DHT22;42435;53.292;6.000;2024-02-28T06:12:44;5.80;83.50
56538;DHT22;42435;53.292;6.000;2024-02-28T06:15:14;5.80;83.50
56538;DHT22;42435;53.292;6.000;2024-02-28T06:17:48;5.80;83.50
56538;DHT22;42435;53.292;6.000;2024-02-28T06:20:32;5.80;83.50
56538;DHT22;42435;53.292;6.000;2024-02-28T06:23:08;5.80;83.50
56538;DHT22;42435;53.292;6.000;2024-02-28T06:25:56;5.80;83.60
56538;DHT22;42435;53.292;6.000;2024-02-28T06:28:26;5.90;83.60
56538;DHT22;42435;53.292;6.000;2024-02-28T06:31:12;5.90;83.60
56538;DHT22;42435;53.292;6.000;2024-02-28T06:33:41;5.90;83.70
56538;DHT22;42435;53.292;6.000;2024-02-28T06:36:12;5.90;83.70
56538;DHT22;42435;53.292;6.000;2024-02-28T06:39:01;5.90;83.70
56538;DHT22;42435;53.292;6.000;2024-02-28T06:41:46;6.00;83.70
56538;DHT22;42435;53.292;6.000;2024-02-28T06:44:16;6.00;83.80
56538;DHT22;42435;53.292;6.000;2024-02-28T06:46:43;6.00;83.70
56538;DHT22;42435;53.292;6.000;2024-02-28T06:49:12;6.00;83.70
56538;DHT22;42435;53.292;6.000;2024-02-28T06:51:46;6.10;83.70
56538;DHT22;42435;53.292;6.000;2024-02-28T06:54:12;6.00;83.70
56538;DHT22;42435;53.292;6.000;2024-02-28T06:56:38;6.10;83.70
56538;DHT22;42435;53.292;6.000;2024-02-28T06:59:07;6.10;83.70
56538;DHT22;42435;53.292;6.000;2024-02-28T07:01:54;6.10;83.70
56538;DHT22;42435;53.292;6.000;2024-02-28T07:04:33;6.20;83.80
56538;DHT22;42435;53.292;6.000;2024-02-28T07:07:00;6.20;83.80
56538;DHT22;42435;53.292;6.000;2024-02-28T07:09:40;6.20;83.80
56538;DHT22;42435;53.292;6.000;2024-02-28T07:12:21;6.20;83.80
56538;DHT22;42435;53.292;6.000;2024-02-28T07:14:51;6.20;83.60
56538;DHT22;42435;53.292;6.000;2024-02-28T07:17:18;6.20;83.70
56538;DHT22;42435;53.292;6.000;2024-02-28T07:19:49;6.20;83.70
56538;DHT22;42435;53.292;6.000;2024-02-28T07:22:34;6.30;83.70
56538;DHT22;42435;53.292;6.000;2024-02-28T07:25:03;6.30;83.80
56538;DHT22;42435;53.292;6.000;2024-02-28T07:27:36;6.30;83.80
56538;DHT22;42435;53.292;6.000;2024-02-28T07:30:02;6.40;83.80
56538;DHT22;42435;53.292;6.000;2024-02-28T07:32:30;6.40;83.70
56538;DHT22;42435;53.292;6.000;2024-02-28T07:35:04;6.40;83.70
56538;DHT22;42435;53.292;6.000;2024-02-28T07:37:34;6.40;83.70
56538;DHT22;42435;53.292;6.000;2024-02-28T07:40:09;6.40;83.70
56538;DHT22;42435;53.292;6.000;2024-02-28T07:42:39;6.40;83.70
56538;DHT22;42435;53.292;6.000;2024-02-28T07:45:12;6.50;83.60
56538;DHT22;42435;53.292;6.000;2024-02-28T07:47:37;6.50;83.60
56538;DHT22;42435;53.292;6.000;2024-02-28T07:50:07;6.50;83.60
56538;DHT22;42435;53.292;6.000;2024-02-28T07:52:44;6.60;83.60
56538;DHT22;42435;53.292;6.000;2024-02-28T07:55:10;6.60;83.60
56538;DHT22;42435;53.292;6.000;2024-02-28T07:57:40;6.70;83.60
56538;DHT22;42435;53.292;6.000;2024-02-28T08:00:15;6.70;83.60
56538;DHT22;42435;53.292;6.000;2024-02-28T08:02:47;6.70;83.50
56538;DHT22;42435;53.292;6.000;2024-02-28T08:05:15;6.80;83.50
56538;DHT22;42435;53.292;6.000;2024-02-28T08:07:49;6.80;83.40
56538;DHT22;42435;53.292;6.000;2024-02-28T08:10:15;6.80;83.40
56538;DHT22;42435;53.292;6.000;2024-02-28T08:12:51;6.80;83.40
56538;DHT22;42435;53.292;6.000;2024-02-28T08:15:22;6.90;83.40
56538;DHT22;42435;53.292;6.000;2024-02-28T08:17:52;6.90;83.40
56538;DHT22;42435;53.292;6.000;2024-02-28T08:20:21;6.90;83.20
56538;DHT22;42435;53.292;6.000;2024-02-28T08:22:57;7.00;83.20
56538;DHT22;42435;53.292;6.000;2024-02-28T08:25:25;7.00;83.20
56538;DHT22;42435;53.292;6.000;2024-02-28T08:27:54;7.00;83.10
56538;DHT22;42435;53.292;6.000;2024-02-28T08:30:25;7.00;83.10
56538;DHT22;42435;53.292;6.000;2024-02-28T08:32:55;7.00;83.00
56538;DHT22;42435;53.292;6.000;2024-02-28T08:35:22;7.10;83.10
56538;DHT22;42435;53.292;6.000;2024-02-28T08:37:51;7.20;83.10
56538;DHT22;42435;53.292;6.000;2024-02-28T08:40:23;7.20;83.20
56538;DHT22;42435;53.292;6.000;2024-02-28T08:42:57;7.30;83.10
56538;DHT22;42435;53.292;6.000;2024-02-28T08:45:33;7.30;83.00
56538;DHT22;42435;53.292;6.000;2024-02-28T08:47:59;7.40;82.90
56538;DHT22;42435;53.292;6.000;2024-02-28T08:50:32;7.40;82.80
56538;DHT22;42435;53.292;6.000;2024-02-28T08:53:02;7.40;82.80
56538;DHT22;42435;53.292;6.000;2024-02-28T08:55:31;7.50;82.80
56538;DHT22;42435;53.292;6.000;2024-02-28T08:58:22;7.50;82.80
56538;DHT22;42435;53.292;6.000;2024-02-28T09:01:03;7.60;82.70
56538;DHT22;42435;53.292;6.000;2024-02-28T09:03:30;7.60;82.70
56538;DHT22;42435;53.292;6.000;2024-02-28T09:06:00;7.70;82.60
56538;DHT22;42435;53.292;6.000;2024-02-28T09:08:36;7.70;82.50
56538;DHT22;42435;53.292;6.000;2024-02-28T09:11:02;7.70;82.50
56538;DHT22;42435;53.292;6.000;2024-02-28T09:13:38;7.80;82.40
56538;DHT22;42435;53.292;6.000;2024-02-28T09:16:07;7.80;82.40
56538;DHT22;42435;53.292;6.000;2024-02-28T09:18:36;7.90;82.40
56538;DHT22;42435;53.292;6.000;2024-02-28T09:21:03;7.90;82.30
56538;DHT22;42435;53.292;6.000;2024-02-28T09:23:31;7.90;82.20
56538;DHT22;42435;53.292;6.000;2024-02-28T09:25:58;7.90;82.20
56538;DHT22;42435;53.292;6.000;2024-02-28T09:28:24;7.90;82.20
56538;DHT22;42435;53.292;6.000;2024-02-28T09:30:53;7.90;82.20
56538;DHT22;42435;53.292;6.000;2024-02-28T09:33:22;8.00;82.20
56538;DHT22;42435;53.292;6.000;2024-02-28T09:35:54;8.00;82.20
56538;DHT22;42435;53.292;6.000;2024-02-28T09:38:31;8.00;82.20
56538;DHT22;42435;53.292;6.000;2024-02-28T09:41:16;8.00;82.20
56538;DHT22;42435;53.292;6.000;2024-02-28T09:43:45;8.10;82.30
56538;DHT22;42435;53.292;6.000;2024-02-28T09:46:14;8.10;82.30
56538;DHT22;42435;53.292;6.000;2024-02-28T09:48:41;8.20;82.30
56538;DHT22;42435;53.292;6.000;2024-02-28T09:51:11;8.20;82.20
56538;DHT22;42435;53.292;6.000;2024-02-28T09:53:40;8.30;82.10
56538;DHT22;42435;53.292;6.000;2024-02-28T09:56:06;8.20;82.00
56538;DHT22;42435;53.292;6.000;2024-02-28T09:58:36;8.20;82.00
56538;DHT22;42435;53.292;6.000;2024-02-28T10:01:16;8.20;81.90
56538;DHT22;42435;53.292;6.000;2024-02-28T10:04:02;8.20;82.00
56538;DHT22;42435;53.292;6.000;2024-02-28T10:07:12;8.20;81.90
56538;DHT22;42435;53.292;6.000;2024-02-28T10:09:42;8.20;82.10
56538;DHT22;42435;53.292;6.000;2024-02-28T10:12:16;8.20;82.10
56538;DHT22;42435;53.292;6.000;2024-02-28T10:14:53;8.30;82.20
56538;DHT22;42435;53.292;6.000;2024-02-28T10:17:21;8.30;82.30
56538;DHT22;42435;53.292;6.000;2024-02-28T10:19:59;8.40;82.30
56538;DHT22;42435;53.292;6.000;2024-02-28T10:22:37;8.40;82.30
56538;DHT22;42435;53.292;6.000;2024-02-28T10:25:06;8.40;82.40
56538;DHT22;42435;53.292;6.000;2024-02-28T10:27:43;8.40;82.40
56538;DHT22;42435;53.292;6.000;2024-02-28T10:30:14;8.50;82.40
56538;DHT22;42435;53.292;6.000;2024-02-28T10:33:01;8.50;82.40
56538;DHT22;42435;53.292;6.000;2024-02-28T10:35:45;8.60;82.30
56538;DHT22;42435;53.292;6.000;2024-02-28T10:38:30;8.60;82.30
56538;DHT22;42435;53.292;6.000;2024-02-28T10:41:00;8.70;82.30
56538;DHT22;42435;53.292;6.000;2024-02-28T10:43:50;8.70;82.30
56538;DHT22;42435;53.292;6.000;2024-02-28T10:46:28;8.80;82.20
56538;DHT22;42435;53.292;6.000;2024-02-28T10:49:20;8.80;82.10
56538;DHT22;42435;53.292;6.000;2024-02-28T10:52:18;8.90;82.10
56538;DHT22;42435;53.292;6.000;2024-02-28T10:55:09;8.90;82.00
56538;DHT22;42435;53.292;6.000;2024-02-28T10:58:08;8.90;81.80
56538;DHT22;42435;53.292;6.000;2024-02-28T11:00:49;8.90;81.70
56538;DHT22;42435;53.292;6.000;2024-02-28T11:03:37;8.90;81.70
56538;DHT22;42435;53.292;6.000;2024-02-28T11:06:28;8.90;81.80
56538;DHT22;42435;53.292;6.000;2024-02-28T11:09:09;9.00;81.80
56538;DHT22;42435;53.292;6.000;2024-02-28T11:11:50;9.10;81.90
56538;DHT22;42435;53.292;6.000;2024-02-28T11:14:33;9.20;81.90
56538;DHT22;42435;53.292;6.000;2024-02-28T11:17:08;9.40;81.70
56538;DHT22;42435;53.292;6.000;2024-02-28T11:19:54;9.40;81.50
56538;DHT22;42435;53.292;6.000;2024-02-28T11:23:07;9.50;81.30
56538;DHT22;42435;53.292;6.000;2024-02-28T11:26:14;9.50;81.00
56538;DHT22;42435;53.292;6.000;2024-02-28T11:28:47;9.50;81.00
56538;DHT22;42435;53.292;6.000;2024-02-28T11:31:43;9.50;80.90
56538;DHT22;42435;53.292;6.000;2024-02-28T11:34:21;9.60;80.90
56538;DHT22;42435;53.292;6.000;2024-02-28T11:37:00;9.60;80.70
56538;DHT22;42435;53.292;6.000;2024-02-28T11:39:34;9.70;80.60
56538;DHT22;42435;53.292;6.000;2024-02-28T11:42:39;9.60;80.60
56538;DHT22;42435;53.292;6.000;2024-02-28T11:45:46;9.70;80.60
56538;DHT22;42435;53.292;6.000;2024-02-28T11:48:24;9.70;80.40
56538;DHT22;42435;53.292;6.000;2024-02-28T11:51:18;9.80;80.20
56538;DHT22;42435;53.292;6.000;2024-02-28T11:54:08;9.80;80.10
56538;DHT22;42435;53.292;6.000;2024-02-28T11:56:43;9.80;80.00
56538;DHT22;42435;53.292;6.000;2024-02-28T11:59:16;9.80;80.00
56538;DHT22;42435;53.292;6.000;2024-02-28T12:02:16;9.90;79.90
56538;DHT22;42435;53.292;6.000;2024-02-28T12:05:14;9.90;79.80
56538;DHT22;42435;53.292;6.000;2024-02-28T12:08:05;10.00;79.70
56538;DHT22;42435;53.292;6.000;2024-02-28T12:10:40;10.00;79.60
56538;DHT22;42435;53.292;6.000;2024-02-28T12:13:37;10.00;79.40
56538;DHT22;42435;53.292;6.000;2024-02-28T12:16:43;10.10;79.10
56538;DHT22;42435;53.292;6.000;2024-02-28T12:19:48;10.10;78.80
56538;DHT22;42435;53.292;6.000;2024-02-28T12:23:06;10.10;78.90
56538;DHT22;42435;53.292;6.000;2024-02-28T12:25:43;10.20;78.80
56538;DHT22;42435;53.292;6.000;2024-02-28T12:28:19;10.20;78.70
56538;DHT22;42435;53.292;6.000;2024-02-28T12:31:08;10.20;78.70
56538;DHT22;42435;53.292;6.000;2024-02-28T12:33:49;10.20;78.60
56538;DHT22;42435;53.292;6.000;2024-02-28T12:36:37;10.30;78.60
56538;DHT22;42435;53.292;6.000;2024-02-28T12:39:11;10.30;78.50
56538;DHT22;42435;53.292;6.000;2024-02-28T12:41:58;10.30;78.40
56538;DHT22;42435;53.292;6.000;2024-02-28T12:44:49;10.40;78.40
56538;DHT22;42435;53.292;6.000;2024-02-28T12:47:47;10.40;78.50
56538;DHT22;42435;53.292;6.000;2024-02-28T12:50:55;10.50;78.40
56538;DHT22;42435;53.292;6.000;2024-02-28T12:53:44;10.50;78.30
56538;DHT22;42435;53.292;6.000;2024-02-28T12:56:17;10.60;78.40
56538;DHT22;42435;53.292;6.000;2024-02-28T12:59:35;10.60;78.40
56538;DHT22;42435;53.292;6.000;2024-02-28T13:02:09;10.70;78.00
56538;DHT22;42435;53.292;6.000;2024-02-28T13:04:43;10.70;77.90
56538;DHT22;42435;53.292;6.000;2024-02-28T13:07:14;10.70;77.70
56538;DHT22;42435;53.292;6.000;2024-02-28T13:09:48;10.70;77.60
56538;DHT22;42435;53.292;6.000;2024-02-28T13:12:15;10.70;77.40
56538;DHT22;42435;53.292;6.000;2024-02-28T13:14:49;10.60;77.40
56538;DHT22;42435;53.292;6.000;2024-02-28T13:17:21;10.70;77.40
56538;DHT22;42435;53.292;6.000;2024-02-28T13:19:54;10.60;77.50
56538;DHT22;42435;53.292;6.000;2024-02-28T13:22:29;10.60;77.60
56538;DHT22;42435;53.292;6.000;2024-02-28T13:25:10;10.70;77.70
56538;DHT22;42435;53.292;6.000;2024-02-28T13:27:46;10.70;77.50
56538;DHT22;42435;53.292;6.000;2024-02-28T13:30:13;10.70;77.40
56538;DHT22;42435;53.292;6.000;2024-02-28T13:32:45;10.70;77.30
56538;DHT22;42435;53.292;6.000;2024-02-28T13:35:30;10.70;77.30
56538;DHT22;42435;53.292;6.000;2024-02-28T13:38:02;10.60;77.30
56538;DHT22;42435;53.292;6.000;2024-02-28T13:40:28;10.60;77.40
56538;DHT22;42435;53.292;6.000;2024-02-28T13:43:21;10.60;77.50
56538;DHT22;42435;53.292;6.000;2024-02-28T13:46:03;10.70;77.70
56538;DHT22;42435;53.292;6.000;2024-02-28T13:48:30;10.70;77.70
56538;DHT22;42435;53.292;6.000;2024-02-28T13:51:00;10.70;77.50
56538;DHT22;42435;53.292;6.000;2024-02-28T13:53:36;10.70;77.50
56538;DHT22;42435;53.292;6.000;2024-02-28T13:56:08;10.70;77.50
56538;DHT22;42435;53.292;6.000;2024-02-28T13:58:38;10.70;77.50
56538;DHT22;42435;53.292;6.000;2024-02-28T14:01:05;10.70;77.50
56538;DHT22;42435;53.292;6.000;2024-02-28T14:03:32;10.70;77.50
56538;DHT22;42435;53.292;6.000;2024-02-28T14:06:01;10.70;77.50
56538;DHT22;42435;53.292;6.000;2024-02-28T14:08:28;10.70;77.40
56538;DHT22;42435;53.292;6.000;2024-02-28T14:10:59;10.70;77.40
56538;DHT22;42435;53.292;6.000;2024-02-28T14:13:29;10.70;77.20
56538;DHT22;42435;53.292;6.000;2024-02-28T14:15:57;10.70;77.10
56538;DHT22;42435;53.292;6.000;2024-02-28T14:18:32;10.70;77.20
56538;DHT22;42435;53.292;6.000;2024-02-28T14:21:05;10.70;77.30
56538;DHT22;42435;53.292;6.000;2024-02-28T14:23:38;10.80;77.30
56538;DHT22;42435;53.292;6.000;2024-02-28T14:26:08;10.70;77.20
56538;DHT22;42435;53.292;6.000;2024-02-28T14:28:47;10.70;77.10
56538;DHT22;42435;53.292;6.000;2024-02-28T14:31:19;10.70;77.20
56538;DHT22;42435;53.292;6.000;2024-02-28T14:34:00;10.70;77.10
56538;DHT22;42435;53.292;6.000;2024-02-28T14:36:40;10.70;77.20
56538;DHT22;42435;53.292;6.000;2024-02-28T14:39:18;10.70;77.20
56538;DHT22;42435;53.292;6.000;2024-02-28T14:41:51;10.60;77.10
56538;DHT22;42435;53.292;6.000;2024-02-28T14:44:31;10.60;77.00
56538;DHT22;42435;53.292;6.000;2024-02-28T14:47:18;10.50;77.00
56538;DHT22;42435;53.292;6.000;2024-02-28T14:50:11;10.50;77.10
56538;DHT22;42435;53.292;6.000;2024-02-28T14:53:23;10.50;77.20
56538;DHT22;42435;53.292;6.000;2024-02-28T14:55:53;10.40;77.20
56538;DHT22;42435;53.292;6.000;2024-02-28T14:58:39;10.40;77.20
56538;DHT22;42435;53.292;6.000;2024-02-28T15:01:21;10.40;77.40
56538;DHT22;42435;53.292;6.000;2024-02-28T15:03:55;10.40;77.50
56538;DHT22;42435;53.292;6.000;2024-02-28T15:06:37;10.40;77.50
56538;DHT22;42435;53.292;6.000;2024-02-28T15:09:14;10.40;77.60
56538;DHT22;42435;53.292;6.000;2024-02-28T15:12:10;10.40;77.60
56538;DHT22;42435;53.292;6.000;2024-02-28T15:14:44;10.40;77.50
56538;DHT22;42435;53.292;6.000;2024-02-28T15:17:13;10.40;77.50
56538;DHT22;42435;53.292;6.000;2024-02-28T15:19:54;10.30;77.50
56538;DHT22;42435;53.292;6.000;2024-02-28T15:22:59;10.30;77.70
56538;DHT22;42435;53.292;6.000;2024-02-28T15:25:37;10.30;77.70
56538;DHT22;42435;53.292;6.000;2024-02-28T15:28:35;10.30;77.70
56538;DHT22;42435;53.292;6.000;2024-02-28T15:31:20;10.30;77.80
56538;DHT22;42435;53.292;6.000;2024-02-28T15:34:14;10.30;77.80
56538;DHT22;42435;53.292;6.000;2024-02-28T15:36:47;10.30;77.90
56538;DHT22;42435;53.292;6.000;2024-02-28T15:39:18;10.20;77.90
56538;DHT22;42435;53.292;6.000;2024-02-28T15:41:51;10.20;78.00
56538;DHT22;42435;53.292;6.000;2024-02-28T15:44:38;10.20;77.90
56538;DHT22;42435;53.292;6.000;2024-02-28T15:47:08;10.20;77.90
56538;DHT22;42435;53.292;6.000;2024-02-28T15:49:42;10.20;77.90
56538;DHT22;42435;53.292;6.000;2024-02-28T15:52:11;10.20;78.00
56538;DHT22;42435;53.292;6.000;2024-02-28T15:55:25;10.20;78.00
56538;DHT22;42435;53.292;6.000;2024-02-28T16:01:27;10.20;78.10
56538;DHT22;42435;53.292;6.000;2024-02-28T16:04:05;10.20;78.00
56538;DHT22;42435;53.292;6.000;2024-02-28T16:07:08;10.20;78.00
56538;DHT22;42435;53.292;6.000;2024-02-28T16:10:34;10.20;78.00
56538;DHT22;42435;53.292;6.000;2024-02-28T16:13:29;10.10;78.00
56538;DHT22;42435;53.292;6.000;2024-02-28T16:16:22;10.00;78.00
56538;DHT22;42435;53.292;6.000;2024-02-28T16:18:51;9.90;78.00
56538;DHT22;42435;53.292;6.000;2024-02-28T16:21:45;10.00;78.10
56538;DHT22;42435;53.292;6.000;2024-02-28T16:24:45;9.90;78.20
56538;DHT22;42435;53.292;6.000;2024-02-28T16:28:20;9.90;78.40
56538;DHT22;42435;53.292;6.000;2024-02-28T16:31:03;9.80;78.50
56538;DHT22;42435;53.292;6.000;2024-02-28T16:33:55;9.80;78.50
56538;DHT22;42435;53.292;6.000;2024-02-28T16:36:46;9.80;78.60
56538;DHT22;42435;53.292;6.000;2024-02-28T16:39:35;9.80;78.60
56538;DHT22;42435;53.292;6.000;2024-02-28T16:42:17;9.70;78.60
56538;DHT22;42435;53.292;6.000;2024-02-28T16:45:30;9.70;78.70
56538;DHT22;42435;53.292;6.000;2024-02-28T16:48:12;9.70;78.80